Time;durP1;ratioP1;P1;durP2;ratioP2;P2;SDS_P1;SDS_P2;PMS_P1;PMS_P2;Temp;Humidity;BMP_temperature;BMP_pressure;BME280_temperature;BME280_humidity;BME280_pressure;Samples;Min_cycle;Max_cycle;Signal;HPM_P1;HPM_P2
2024/02/13 00:02:26;;;;;;;25.98;11.35;;;;;;;3.07;100.00;101468.81;5282102;27;20024;-73
2024/02/13 00:04:56;;;;;;;27.23;11.65;;;;;;;3.09;100.00;101464.25;5282279;27;20092;-74
2024/02/13 00:07:29;;;;;;;30.90;12.23;;;;;;;3.15;100.00;101470.94;5282160;27;20023;-74
2024/02/13 00:09:59;;;;;;;33.90;14.15;;;;;;;3.15;100.00;101466.50;5282601;28;20045;-74
2024/02/13 00:12:30;;;;;;;31.35;13.10;;;;;;;3.18;100.00;101470.75;5284891;28;20023;-74
2024/02/13 00:15:00;;;;;;;29.08;12.45;;;;;;;3.20;100.00;101463.53;5280775;27;20050;-74
2024/02/13 00:17:31;;;;;;;26.73;13.27;;;;;;;3.22;100.00;101462.50;5284594;28;20032;-73
2024/02/13 00:20:08;;;;;;;27.45;12.60;;;;;;;3.22;100.00;101462.50;5282664;27;20023;-73
2024/02/13 00:22:39;;;;;;;28.10;12.63;;;;;;;3.27;100.00;101468.34;5283950;27;20110;-74
2024/02/13 00:25:10;;;;;;;28.98;12.35;;;;;;;3.32;100.00;101471.53;5285352;27;20020;-73
2024/02/13 00:27:40;;;;;;;33.70;14.50;;;;;;;3.47;100.00;101466.13;5281756;28;20100;-74
2024/02/13 00:30:12;;;;;;;35.13;13.70;;;;;;;3.52;100.00;101475.47;5284344;27;20110;-73
2024/02/13 00:32:42;;;;;;;36.92;13.25;;;;;;;3.55;100.00;101469.09;5278744;27;20062;-74
2024/02/13 00:35:13;;;;;;;36.75;14.43;;;;;;;3.61;100.00;101468.66;5283642;27;20102;-74
2024/02/13 00:37:43;;;;;;;35.65;14.07;;;;;;;3.69;100.00;101476.09;5283996;28;20082;-74
2024/02/13 00:40:15;;;;;;;35.60;13.88;;;;;;;3.73;100.00;101481.09;5269235;28;20034;-74
2024/02/13 00:42:45;;;;;;;33.47;14.15;;;;;;;3.79;100.00;101485.13;5273631;28;20597;-74
2024/02/13 00:45:16;;;;;;;30.58;14.10;;;;;;;3.81;100.00;101483.19;5276240;28;20024;-73
2024/02/13 00:47:46;;;;;;;32.25;13.15;;;;;;;3.74;100.00;101495.19;5280772;27;20104;-74
2024/02/13 00:50:17;;;;;;;32.50;15.85;;;;;;;3.71;100.00;101496.25;5285153;28;20035;-74
2024/02/13 00:52:49;;;;;;;33.22;14.63;;;;;;;3.77;100.00;101495.00;5278949;27;20023;-74
2024/02/13 00:55:19;;;;;;;37.40;15.00;;;;;;;3.82;100.00;101496.38;5281763;28;20024;-74
2024/02/13 00:57:50;;;;;;;30.02;13.95;;;;;;;3.85;100.00;101501.44;5284969;27;20034;-74
2024/02/13 01:00:20;;;;;;;31.38;13.52;;;;;;;3.85;100.00;101506.75;5275696;27;20020;-74
2024/02/13 01:02:51;;;;;;;24.33;12.13;;;;;;;3.88;100.00;101506.56;5279381;28;20036;-74
2024/02/13 01:05:22;;;;;;;37.50;13.30;;;;;;;3.90;100.00;101507.28;5274882;28;20028;-74
2024/02/13 01:07:52;;;;;;;34.33;12.88;;;;;;;3.93;100.00;101513.38;5273765;27;20020;-74
2024/02/13 01:10:23;;;;;;;32.15;13.20;;;;;;;3.96;100.00;101505.16;5280150;28;20121;-74
2024/02/13 01:12:54;;;;;;;36.00;13.48;;;;;;;3.96;100.00;101494.53;5283138;27;20035;-74
2024/02/13 01:15:26;;;;;;;31.05;12.48;;;;;;;3.99;100.00;101495.19;5268547;28;20028;-74
2024/02/13 01:17:59;;;;;;;32.38;13.15;;;;;;;3.97;100.00;101505.06;5269698;28;20485;-74
2024/02/13 01:20:29;;;;;;;25.17;11.68;;;;;;;3.96;100.00;101506.00;5273568;28;20444;-74
2024/02/13 01:22:59;;;;;;;29.25;11.32;;;;;;;3.97;100.00;101515.69;5281630;28;20023;-74
2024/02/13 01:25:30;;;;;;;37.88;12.95;;;;;;;3.98;100.00;101511.22;5284228;28;20102;-74
2024/02/13 01:28:01;;;;;;;29.48;11.98;;;;;;;3.98;100.00;101520.03;5279316;27;20024;-73
2024/02/13 01:30:31;;;;;;;30.10;11.10;;;;;;;3.96;100.00;101518.44;5282005;28;20027;-74
2024/02/13 01:33:03;;;;;;;28.33;11.90;;;;;;;3.92;100.00;101525.78;5276158;28;20032;-74
2024/02/13 01:35:34;;;;;;;27.02;11.93;;;;;;;3.90;100.00;101528.53;5279312;28;20028;-74
2024/02/13 01:38:06;;;;;;;23.70;11.35;;;;;;;3.87;100.00;101531.41;5283192;28;20035;-74
2024/02/13 01:40:37;;;;;;;25.58;11.30;;;;;;;3.86;100.00;101535.00;5280021;28;20024;-73
2024/02/13 01:43:09;;;;;;;26.42;10.45;;;;;;;3.89;100.00;101532.16;5282566;28;20028;-73
2024/02/13 01:45:39;;;;;;;28.90;10.95;;;;;;;3.89;100.00;101539.25;5279034;28;20389;-74
2024/02/13 01:48:10;;;;;;;23.95;10.52;;;;;;;3.86;100.00;101545.63;5273506;28;20024;-73
2024/02/13 01:50:41;;;;;;;24.85;10.85;;;;;;;3.89;100.00;101542.75;5287769;28;20032;-74
2024/02/13 01:53:14;;;;;;;23.48;10.68;;;;;;;3.86;100.00;101540.31;5280483;28;20076;-73
2024/02/13 01:55:45;;;;;;;26.65;10.38;;;;;;;3.90;100.00;101538.31;5280427;28;20073;-73
2024/02/13 01:58:19;;;;;;;26.50;10.32;;;;;;;3.93;100.00;101542.56;5279305;28;20480;-74
2024/02/13 02:00:58;;;;;;;36.42;11.57;;;;;;;3.98;100.00;101549.25;5279360;28;20059;-74
2024/02/13 02:03:33;;;;;;;24.77;12.60;;;;;;;4.02;100.00;101539.28;5281798;28;20479;-74
2024/02/13 02:06:03;;;;;;;26.33;10.37;;;;;;;4.01;100.00;101542.84;5276152;28;20084;-74
2024/02/13 02:08:34;;;;;;;26.73;9.50;;;;;;;4.01;100.00;101546.34;5285010;28;20290;-74
2024/02/13 02:11:05;;;;;;;23.92;10.48;;;;;;;3.97;100.00;101546.72;5285899;28;20049;-74
2024/02/13 02:13:36;;;;;;;32.67;9.27;;;;;;;3.86;100.00;101547.44;5280497;27;20036;-74
2024/02/13 02:16:07;;;;;;;24.95;9.10;;;;;;;3.74;100.00;101543.81;5284344;28;20027;-74
2024/02/13 02:18:39;;;;;;;23.35;8.85;;;;;;;3.74;100.00;101543.81;5276593;28;20024;-73
2024/02/13 02:21:09;;;;;;;26.75;10.27;;;;;;;3.75;100.00;101545.50;5291407;27;20035;-74
2024/02/13 02:23:40;;;;;;;19.05;9.02;;;;;;;3.76;100.00;101543.69;5285812;28;20027;-74
2024/02/13 02:26:11;;;;;;;25.52;8.90;;;;;;;3.84;100.00;101538.72;5284404;28;20038;-74
2024/02/13 02:28:43;;;;;;;22.58;10.35;;;;;;;3.89;100.00;101542.75;5284570;28;20030;-74
2024/02/13 02:31:13;;;;;;;23.55;8.50;;;;;;;3.95;100.00;101537.97;5284948;27;20102;-73
2024/02/13 02:33:46;;;;;;;23.35;9.90;;;;;;;3.98;100.00;101545.75;5285607;28;20102;-73
2024/02/13 02:36:16;;;;;;;29.63;8.15;;;;;;;4.00;100.00;101541.16;5292811;27;20526;-74
2024/02/13 02:38:46;;;;;;;23.02;9.40;;;;;;;4.01;100.00;101550.81;5286250;28;20027;-73
2024/02/13 02:41:17;;;;;;;16.38;8.65;;;;;;;4.00;100.00;101546.47;5280358;28;20036;-74
2024/02/13 02:43:48;;;;;;;27.83;8.20;;;;;;;3.97;100.00;101549.38;5285103;28;20477;-74
2024/02/13 02:46:19;;;;;;;22.30;8.10;;;;;;;4.05;100.00;101554.97;5287860;27;20027;-74
2024/02/13 02:48:49;;;;;;;25.33;9.05;;;;;;;4.04;100.00;101556.78;5282994;27;20034;-74
2024/02/13 02:51:20;;;;;;;28.00;10.20;;;;;;;4.04;100.00;101553.28;5285743;28;20032;-73
2024/02/13 02:53:51;;;;;;;24.38;8.63;;;;;;;3.96;100.00;101552.94;5279988;28;20103;-73
2024/02/13 02:56:21;;;;;;;31.15;10.30;;;;;;;3.94;100.00;101547.75;5284657;28;20677;-73
2024/02/13 02:58:55;;;;;;;36.08;7.88;;;;;;;3.95;100.00;101548.59;5289855;27;20084;-74
2024/02/13 03:01:26;;;;;;;22.92;8.27;;;;;;;3.95;100.00;101546.78;5282870;27;20028;-73
2024/02/13 03:03:57;;;;;;;16.35;6.90;;;;;;;3.94;100.00;101555.72;5282018;28;20027;-73
2024/02/13 03:06:29;;;;;;;20.98;7.82;;;;;;;3.97;100.00;101550.22;5286723;28;20019;-74
2024/02/13 03:09:00;;;;;;;16.08;6.90;;;;;;;4.01;100.00;101554.31;5278818;28;20028;-74
2024/02/13 03:11:32;;;;;;;24.00;7.90;;;;;;;4.05;100.00;101549.66;5284534;28;20408;-74
2024/02/13 03:14:16;;;;;;;21.25;7.72;;;;;;;4.00;100.00;101555.28;5282005;28;20024;-74
2024/02/13 03:16:52;;;;;;;19.23;6.78;;;;;;;4.05;100.00;101557.63;5287874;27;20030;-74
2024/02/13 03:19:34;;;;;;;15.57;6.63;;;;;;;4.04;100.00;101558.59;5289553;27;20031;-74
2024/02/13 03:22:05;;;;;;;22.13;6.65;;;;;;;4.01;100.00;101564.94;5289232;27;20038;-77
2024/02/13 03:24:35;;;;;;;20.35;7.13;;;;;;;3.97;100.00;101559.97;5285733;27;20024;-74
2024/02/13 03:27:08;;;;;;;16.70;6.75;;;;;;;3.94;100.00;101561.03;5279502;27;20031;-75
2024/02/13 03:29:39;;;;;;;17.60;7.15;;;;;;;3.85;100.00;101559.84;5280611;27;20443;-75
2024/02/13 03:32:09;;;;;;;23.40;8.27;;;;;;;3.85;100.00;101562.50;5285848;27;20438;-74
2024/02/13 03:34:40;;;;;;;25.90;7.43;;;;;;;3.87;100.00;101560.63;5278685;28;20502;-73
2024/02/13 03:37:12;;;;;;;21.60;8.30;;;;;;;3.93;100.00;101569.97;5285054;28;20011;-73
2024/02/13 03:39:43;;;;;;;20.48;8.18;;;;;;;3.95;100.00;101561.88;5289332;27;20042;-77
2024/02/13 03:42:15;;;;;;;21.92;6.80;;;;;;;3.99;100.00;101563.38;5290980;27;20533;-73
2024/02/13 03:44:46;;;;;;;24.08;7.22;;;;;;;3.96;100.00;101567.06;5284330;28;21451;-73
2024/02/13 03:47:17;;;;;;;18.83;6.10;;;;;;;3.96;100.00;101571.53;5283456;28;20031;-73
2024/02/13 03:49:48;;;;;;;24.70;6.53;;;;;;;3.94;100.00;101576.97;5281648;28;20027;-73
2024/02/13 03:52:19;;;;;;;17.10;5.50;;;;;;;3.93;100.00;101577.91;5286543;27;20028;-73
2024/02/13 03:54:49;;;;;;;21.67;6.43;;;;;;;3.92;100.00;101586.84;5283301;28;20088;-75
2024/02/13 03:57:20;;;;;;;20.35;5.65;;;;;;;3.93;100.00;101577.91;5283311;27;20026;-74
2024/02/13 03:59:50;;;;;;;18.48;6.38;;;;;;;3.93;100.00;101574.41;5289521;27;20062;-73
2024/02/13 04:02:20;;;;;;;21.52;6.10;;;;;;;3.87;100.00;101565.06;5287517;27;20027;-73
2024/02/13 04:04:51;;;;;;;20.70;6.60;;;;;;;3.84;100.00;101565.28;5288411;27;20096;-73
2024/02/13 04:07:21;;;;;;;15.30;5.85;;;;;;;3.78;100.00;101565.69;5290793;27;20016;-76
2024/02/13 04:09:52;;;;;;;16.05;5.97;;;;;;;3.79;100.00;101573.56;5280602;27;20047;-73
2024/02/13 04:12:22;;;;;;;21.83;5.60;;;;;;;3.74;100.00;101575.66;5283281;27;20023;-74
2024/02/13 04:14:53;;;;;;;20.35;6.10;;;;;;;3.69;100.00;101567.16;5284715;27;20111;-77
2024/02/13 04:17:23;;;;;;;14.57;5.47;;;;;;;3.67;100.00;101577.06;5282876;28;20110;-73
2024/02/13 04:19:54;;;;;;;12.60;5.40;;;;;;;3.69;100.00;101572.47;5287673;27;20027;-75
2024/02/13 04:22:25;;;;;;;14.25;4.90;;;;;;;3.69;100.00;101577.78;5285458;27;20034;-73
2024/02/13 04:24:56;;;;;;;22.02;5.35;;;;;;;3.67;100.00;101578.84;5281955;27;20035;-73
2024/02/13 04:27:27;;;;;;;14.93;4.35;;;;;;;3.63;100.00;101575.56;5290715;27;20027;-74
2024/02/13 04:29:57;;;;;;;14.25;5.47;;;;;;;3.57;100.00;101573.31;5285351;27;20019;-73
2024/02/13 04:32:28;;;;;;;23.63;5.22;;;;;;;3.52;100.00;101570.97;5286947;27;20031;-73
2024/02/13 04:35:00;;;;;;;15.20;5.05;;;;;;;3.51;100.00;101571.06;5280804;28;20108;-76
2024/02/13 04:37:31;;;;;;;21.10;4.22;;;;;;;3.53;100.00;101577.13;5283234;27;20028;-73
2024/02/13 04:40:02;;;;;;;19.90;5.40;;;;;;;3.57;100.00;101575.97;5284074;27;20028;-74
2024/02/13 04:42:34;;;;;;;18.77;4.78;;;;;;;3.59;100.00;101584.66;5283415;27;20026;-73
2024/02/13 04:45:05;;;;;;;24.27;5.85;;;;;;;3.64;100.00;101587.84;5283123;28;20051;-73
2024/02/13 04:47:36;;;;;;;16.20;6.30;;;;;;;3.65;100.00;101584.25;5280833;28;20528;-74
2024/02/13 04:50:07;;;;;;;15.07;5.40;;;;;;;3.69;100.00;101585.75;5287048;27;20028;-73
2024/02/13 04:52:38;;;;;;;22.17;6.22;;;;;;;3.67;100.00;101589.47;5276745;28;20034;-74
2024/02/13 04:55:10;;;;;;;14.55;5.38;;;;;;;3.67;100.00;101597.44;5283989;28;20020;-74
2024/02/13 04:57:41;;;;;;;19.40;5.20;;;;;;;3.66;100.00;101593.91;5281426;28;20030;-73
2024/02/13 05:00:24;;;;;;;19.38;5.40;;;;;;;3.73;100.00;101597.00;5282555;28;20012;-73
2024/02/13 05:03:03;;;;;;;18.30;4.80;;;;;;;3.73;100.00;101600.50;5286093;27;20031;-76
2024/02/13 05:08:22;;;;;;;15.30;4.57;;;;;;;3.71;100.00;101601.56;5281574;28;20032;-77
2024/02/13 05:10:53;;;;;;;13.15;4.28;;;;;;;3.68;100.00;101602.63;5284636;27;20019;-73
2024/02/13 05:13:24;;;;;;;12.82;4.07;;;;;;;3.68;100.00;101602.63;5285015;28;20012;-73
2024/02/13 05:15:54;;;;;;;22.77;4.95;;;;;;;3.70;100.00;101600.72;5284097;28;20110;-73
2024/02/13 05:18:24;;;;;;;11.38;4.05;;;;;;;3.72;100.00;101608.59;5282412;28;20019;-73
2024/02/13 05:20:55;;;;;;;18.15;5.00;;;;;;;3.74;100.00;101596.91;5279255;28;20102;-75
2024/02/13 05:23:25;;;;;;;13.02;4.28;;;;;;;3.75;100.00;101603.06;5282338;27;20111;-73
2024/02/13 05:25:57;;;;;;;17.70;4.60;;;;;;;3.76;100.00;101605.59;5285786;28;20061;-73
2024/02/13 05:28:27;;;;;;;13.18;4.32;;;;;;;3.76;100.00;101608.25;5286554;27;20045;-74
2024/02/13 05:30:58;;;;;;;14.95;4.88;;;;;;;3.78;100.00;101603.69;5279065;28;20017;-73
2024/02/13 05:33:29;;;;;;;22.92;4.93;;;;;;;3.77;100.00;101611.78;5285432;27;20023;-73
2024/02/13 05:36:02;;;;;;;14.93;4.65;;;;;;;3.81;100.00;101608.78;5280788;28;20548;-76
2024/02/13 05:38:43;;;;;;;16.92;4.00;;;;;;;3.76;100.00;101602.94;5283129;28;20027;-73
2024/02/13 05:41:15;;;;;;;19.40;4.20;;;;;;;3.76;100.00;101605.59;5281653;28;20015;-73
2024/02/13 05:43:45;;;;;;;20.67;4.47;;;;;;;3.84;100.00;101608.59;5284804;28;20020;-76
2024/02/13 05:46:18;;;;;;;20.02;5.22;;;;;;;3.87;100.00;101605.75;5284517;28;20096;-73
2024/02/13 05:48:53;;;;;;;29.70;4.63;;;;;;;3.92;100.00;101604.59;5281366;28;20072;-73
2024/02/13 05:51:23;;;;;;;21.00;4.40;;;;;;;3.93;100.00;101600.97;5282966;28;20545;-76
2024/02/13 05:53:54;;;;;;;15.35;4.65;;;;;;;3.94;100.00;101600.84;5278697;28;20023;-74
2024/02/13 05:56:25;;;;;;;24.50;4.78;;;;;;;3.94;100.00;101597.34;5288585;28;20022;-73
2024/02/13 05:58:57;;;;;;;23.73;3.83;;;;;;;3.96;100.00;101595.44;5290961;27;20016;-73
2024/02/13 06:01:27;;;;;;;18.52;4.88;;;;;;;3.94;100.00;101598.19;5292214;27;20101;-75
2024/02/13 06:04:03;;;;;;;19.30;4.70;;;;;;;3.96;100.00;101592.78;5281965;28;20102;-74
2024/02/13 06:06:36;;;;;;;20.33;4.75;;;;;;;3.96;100.00;101609.56;5280623;28;20030;-76
2024/02/13 06:09:09;;;;;;;25.35;4.60;;;;;;;3.89;100.00;101611.78;5289887;27;20019;-73
2024/02/13 06:11:39;;;;;;;24.83;4.88;;;;;;;3.86;100.00;101608.47;5286124;27;20034;-74
2024/02/13 06:14:10;;;;;;;23.80;4.70;;;;;;;3.84;100.00;101605.94;5282043;27;20016;-77
2024/02/13 06:16:40;;;;;;;22.25;5.25;;;;;;;3.83;100.00;101606.91;5290370;27;20026;-74
2024/02/13 06:19:11;;;;;;;37.08;5.75;;;;;;;3.76;100.00;101605.59;5288742;28;20043;-73
2024/02/13 06:21:42;;;;;;;27.80;5.70;;;;;;;3.73;100.00;101611.13;5286392;27;20098;-73
2024/02/13 06:24:13;;;;;;;26.92;5.47;;;;;;;3.72;100.00;101614.75;5286549;28;20100;-73
2024/02/13 06:26:44;;;;;;;35.90;5.97;;;;;;;3.68;100.00;101615.91;5292052;27;20107;-73
2024/02/13 06:29:15;;;;;;;33.22;6.45;;;;;;;3.66;100.00;101619.59;5281477;28;20128;-73
2024/02/13 06:31:46;;;;;;;32.65;6.95;;;;;;;3.65;100.00;101621.41;5287863;28;20026;-73
2024/02/13 06:34:19;;;;;;;41.35;8.10;;;;;;;3.64;100.00;101617.91;5292544;27;20481;-73
2024/02/13 06:36:50;;;;;;;35.63;7.97;;;;;;;3.63;100.00;101629.47;5280136;28;20032;-73
2024/02/13 06:39:23;;;;;;;32.22;8.15;;;;;;;3.59;100.00;101624.47;5284479;28;20050;-73
2024/02/13 06:41:53;;;;;;;40.92;7.97;;;;;;;3.55;100.00;101630.94;5288141;27;20102;-78
2024/02/13 06:44:24;;;;;;;40.17;8.88;;;;;;;3.51;100.00;101638.22;5286284;27;20667;-73
2024/02/13 06:46:55;;;;;;;31.35;8.25;;;;;;;3.47;100.00;101641.22;5282293;28;20035;-73
2024/02/13 06:49:25;;;;;;;39.30;9.02;;;;;;;3.43;100.00;101645.00;5276187;28;20023;-73
2024/02/13 06:51:56;;;;;;;35.47;7.80;;;;;;;3.41;100.00;101646.91;5278917;27;20020;-76
2024/02/13 06:54:26;;;;;;;36.00;8.95;;;;;;;3.32;100.00;101643.91;5284967;28;20023;-72
2024/02/13 06:56:57;;;;;;;37.70;9.68;;;;;;;3.31;100.00;101642.22;5288591;27;20042;-77
2024/02/13 06:59:28;;;;;;;57.50;12.50;;;;;;;3.33;100.00;101648.25;5288093;27;20091;-72
2024/02/13 07:01:59;;;;;;;46.22;10.48;;;;;;;3.32;100.00;101645.72;5286129;27;20032;-73
2024/02/13 07:04:30;;;;;;;42.33;9.82;;;;;;;3.36;100.00;101650.72;5290488;27;20125;-72
2024/02/13 07:07:05;;;;;;;42.58;8.10;;;;;;;3.42;100.00;101654.78;5289445;27;20480;-73
2024/02/13 07:09:36;;;;;;;37.35;8.27;;;;;;;3.52;100.00;101652.38;5283942;27;20070;-73
2024/02/13 07:12:08;;;;;;;39.22;8.05;;;;;;;3.56;100.00;101656.50;5288267;27;20669;-72
2024/02/13 07:14:38;;;;;;;40.10;7.47;;;;;;;3.58;100.00;101658.13;5291479;27;20023;-73
2024/02/13 07:17:09;;;;;;;34.38;7.22;;;;;;;3.61;100.00;101660.56;5285666;28;20556;-73
2024/02/13 07:19:41;;;;;;;35.83;8.15;;;;;;;3.63;100.00;101665.78;5287995;27;20448;-75
2024/02/13 07:22:11;;;;;;;31.48;6.90;;;;;;;3.65;100.00;101666.50;5288383;27;20107;-75
2024/02/13 07:24:41;;;;;;;29.08;6.18;;;;;;;3.68;100.00;101670.78;5286811;27;20126;-74
2024/02/13 07:27:12;;;;;;;31.25;7.28;;;;;;;3.70;100.00;101672.34;5287286;28;20016;-73
2024/02/13 07:29:43;;;;;;;26.08;6.22;;;;;;;3.73;100.00;101674.81;5285069;28;20054;-73
2024/02/13 07:32:14;;;;;;;24.35;6.70;;;;;;;3.75;100.00;101669.41;5287210;27;20024;-73
2024/02/13 07:34:45;;;;;;;26.92;8.07;;;;;;;3.78;100.00;101671.88;5282396;28;20061;-73
2024/02/13 07:37:15;;;;;;;26.42;6.97;;;;;;;3.88;100.00;101676.44;5287382;28;20031;-74
2024/02/13 07:39:45;;;;;;;26.13;6.07;;;;;;;3.92;100.00;101673.59;5285579;28;20434;-75
2024/02/13 07:42:16;;;;;;;22.80;5.80;;;;;;;4.01;100.00;101687.09;5285478;28;20043;-73
2024/02/13 07:44:47;;;;;;;23.27;5.80;;;;;;;4.09;100.00;101686.59;5290788;27;20043;-73
2024/02/13 07:47:17;;;;;;;14.27;4.80;;;;;;;4.15;100.00;101687.00;5286409;28;20019;-72
2024/02/13 07:49:48;;;;;;;13.00;4.95;;;;;;;4.15;100.00;101694.97;5289320;27;20538;-75
2024/02/13 07:52:19;;;;;;;17.42;5.88;;;;;;;4.19;100.00;101698.28;5284829;27;20058;-73
2024/02/13 07:54:50;;;;;;;17.60;5.35;;;;;;;4.47;100.00;101701.69;5287168;27;20015;-77
2024/02/13 07:57:21;;;;;;;14.75;4.93;;;;;;;4.63;100.00;101700.53;5286610;27;20020;-73
2024/02/13 07:59:58;;;;;;;13.10;5.05;;;;;;;4.87;100.00;101705.94;5287133;27;20028;-73
2024/02/13 08:02:29;;;;;;;15.45;4.70;;;;;;;5.14;100.00;101697.78;5283469;28;20047;-77
2024/02/13 08:05:00;;;;;;;13.48;4.30;;;;;;;5.33;100.00;101699.97;5283284;28;20481;-75
2024/02/13 08:07:30;;;;;;;15.73;4.43;;;;;;;5.54;100.00;101694.91;5283162;28;20026;-74
2024/02/13 08:10:01;;;;;;;14.25;3.85;;;;;;;5.68;100.00;101699.22;5285411;28;20428;-74
2024/02/13 08:12:31;;;;;;;15.43;6.90;;;;;;;5.85;100.00;101704.13;5284595;28;20577;-73
2024/02/13 08:15:03;;;;;;;14.35;4.28;;;;;;;5.90;100.00;101703.78;5285661;27;20024;-74
2024/02/13 08:17:34;;;;;;;13.30;4.35;;;;;;;6.01;100.00;101701.19;5283248;28;20037;-78
2024/02/13 08:20:08;;;;;;;16.40;4.40;;;;;;;6.25;100.00;101703.78;5288444;27;20053;-74
2024/02/13 08:22:40;;;;;;;11.05;3.70;;;;;;;6.56;100.00;101698.75;5283355;28;20028;-78
2024/02/13 08:25:10;;;;;;;13.57;3.95;;;;;;;6.78;100.00;101714.78;5283868;28;20026;-74
2024/02/13 08:27:41;;;;;;;10.07;4.15;;;;;;;6.95;100.00;101713.44;5282484;28;20023;-76
2024/02/13 08:30:11;;;;;;;12.55;3.92;;;;;;;7.02;100.00;101720.00;5285725;28;20019;-74
2024/02/13 08:32:44;;;;;;;12.30;3.63;;;;;;;7.14;100.00;101716.34;5282480;28;20507;-77
2024/02/13 08:35:15;;;;;;;18.48;4.25;;;;;;;7.19;100.00;101713.31;5283506;28;20012;-73
2024/02/13 08:37:45;;;;;;;14.15;4.13;;;;;;;7.47;100.00;101715.44;5291443;27;20069;-76
2024/02/13 08:40:18;;;;;;;11.75;4.13;;;;;;;7.99;100.00;101710.31;5286412;27;20023;-73
2024/02/13 08:42:49;;;;;;;13.48;3.97;;;;;;;8.40;100.00;101722.88;5283549;28;20704;-74
2024/02/13 08:45:20;;;;;;;14.30;4.22;;;;;;;8.09;100.00;101711.22;5285898;27;20069;-73
2024/02/13 08:47:50;;;;;;;11.98;3.95;;;;;;;7.88;100.00;101718.34;5288200;27;20650;-73
2024/02/13 08:50:21;;;;;;;13.82;3.92;;;;;;;7.52;100.00;101715.06;5284799;28;20030;-77
2024/02/13 08:52:51;;;;;;;14.45;4.00;;;;;;;7.37;100.00;101717.16;5280046;28;20020;-74
2024/02/13 08:55:22;;;;;;;19.60;4.95;;;;;;;7.29;100.00;101722.28;5280936;28;20027;-73
2024/02/13 08:57:52;;;;;;;16.08;3.85;;;;;;;7.48;100.00;101724.28;5280125;28;20042;-74
2024/02/13 09:00:23;;;;;;;16.05;3.72;;;;;;;7.74;100.00;101716.84;5281968;28;20107;-73
2024/02/13 09:02:53;;;;;;;9.25;4.22;;;;;;;8.35;100.00;101716.19;5283317;27;20027;-74
2024/02/13 09:05:24;;;;;;;11.45;3.30;;;;;;;8.41;100.00;101711.19;5283783;27;20503;-75
2024/02/13 09:07:54;;;;;;;14.38;4.28;;;;;;;8.55;100.00;101705.50;5285843;28;20024;-74
2024/02/13 09:10:25;;;;;;;9.32;3.80;;;;;;;8.53;100.00;101707.47;5284753;28;20065;-74
2024/02/13 09:12:55;;;;;;;7.90;3.60;;;;;;;8.66;100.00;101707.25;5282704;27;20031;-77
2024/02/13 09:15:29;;;;;;;10.45;4.18;;;;;;;8.41;100.00;101718.38;5283953;28;20016;-74
2024/02/13 09:17:59;;;;;;;10.18;3.55;;;;;;;8.59;100.00;101719.47;5281413;28;20061;-77
2024/02/13 09:20:30;;;;;;;14.30;4.05;;;;;;;9.03;100.00;101715.56;5285118;27;20500;-74
2024/02/13 09:23:01;;;;;;;22.63;4.40;;;;;;;9.48;100.00;101723.19;5281756;28;20047;-74
2024/02/13 09:25:32;;;;;;;13.40;4.07;;;;;;;9.85;100.00;101717.19;5288265;27;20062;-74
2024/02/13 09:28:03;;;;;;;16.02;3.38;;;;;;;10.18;100.00;101726.63;5283553;28;20065;-74
2024/02/13 09:30:33;;;;;;;9.18;3.40;;;;;;;10.44;100.00;101718.88;5283003;28;20373;-78
2024/02/13 09:33:04;;;;;;;11.35;3.58;;;;;;;10.72;100.00;101721.63;5284459;28;20019;-75
2024/02/13 09:35:34;;;;;;;9.40;3.00;;;;;;;11.02;100.00;101726.75;5284695;28;20015;-74
2024/02/13 09:38:06;;;;;;;12.45;3.35;;;;;;;11.13;100.00;101726.53;5279427;28;20126;-74
2024/02/13 09:40:37;;;;;;;7.75;3.13;;;;;;;11.41;100.00;101723.88;5281745;28;20039;-74
2024/02/13 09:43:08;;;;;;;12.10;3.10;;;;;;;11.22;100.00;101718.59;5286004;28;20107;-76
2024/02/13 09:45:41;;;;;;;11.77;3.53;;;;;;;11.52;100.00;101731.72;5280514;28;20107;-74
2024/02/13 09:48:19;;;;;;;9.35;2.92;;;;;;;11.85;100.00;101743.69;5290845;28;20484;-75
2024/02/13 09:50:51;;;;;;;9.15;3.28;;;;;;;12.30;100.00;101731.13;5284019;28;20501;-77
2024/02/13 09:53:26;;;;;;;13.90;3.40;;;;;;;12.79;100.00;101737.72;5287885;28;20043;-75
2024/02/13 09:55:58;;;;;;;12.73;3.40;;;;;;;12.24;100.00;101745.22;5284372;27;20020;-76
2024/02/13 09:58:29;;;;;;;6.82;2.70;;;;;;;12.27;100.00;101747.59;5290673;28;20020;-76
2024/02/13 10:01:00;;;;;;;8.48;2.80;;;;;;;12.53;100.00;101753.88;5284663;28;20022;-78
2024/02/13 10:03:31;;;;;;;13.75;3.33;;;;;;;13.01;100.00;101757.03;5284155;28;20381;-75
2024/02/13 10:06:01;;;;;;;10.10;2.90;;;;;;;13.10;100.00;101756.06;5286380;28;20053;-75
2024/02/13 10:08:34;;;;;;;18.67;3.22;;;;;;;13.04;100.00;101751.31;5281710;27;20035;-76
2024/02/13 10:11:15;;;;;;;9.85;2.92;;;;;;;12.58;100.00;101745.31;5281934;28;20031;-75
2024/02/13 10:13:47;;;;;;;5.53;2.33;;;;;;;12.56;100.00;101745.47;5284256;28;20059;-75
2024/02/13 10:16:20;;;;;;;7.40;3.13;;;;;;;12.15;100.00;101744.31;5287539;28;20023;-75
2024/02/13 10:18:54;;;;;;;10.27;2.58;;;;;;;12.00;100.00;101752.09;5281469;27;20027;-75
2024/02/13 10:21:25;;;;;;;7.25;2.53;;;;;;;11.50;100.00;101739.09;5281984;28;20024;-75
2024/02/13 10:24:06;;;;;;;8.60;2.40;;;;;;;10.76;100.00;101742.66;5281307;28;20062;-75
2024/02/13 10:26:37;;;;;;;5.82;2.63;;;;;;;11.27;100.00;101743.16;5284630;28;20077;-78
2024/02/13 10:29:08;;;;;;;8.27;2.55;;;;;;;10.76;100.00;101737.28;5282788;28;20024;-75
2024/02/13 10:31:40;;;;;;;7.18;2.70;;;;;;;10.63;100.00;101737.59;5283452;28;20015;-78
2024/02/13 10:34:11;;;;;;;12.10;2.40;;;;;;;10.61;100.00;101736.06;5286642;27;20027;-75
2024/02/13 10:36:44;;;;;;;5.35;2.38;;;;;;;10.62;100.00;101735.06;5284995;28;20496;-75
2024/02/13 10:39:20;;;;;;;10.43;2.20;;;;;;;10.73;100.00;101734.88;5282292;28;20107;-80
2024/02/13 10:41:57;;;;;;;7.05;2.00;;;;;;;10.97;100.00;101731.72;5285952;27;20015;-75
2024/02/13 10:44:31;;;;;;;5.40;2.15;;;;;;;11.23;100.00;101733.72;5290789;27;20027;-78
2024/02/13 10:47:03;;;;;;;7.20;2.35;;;;;;;11.31;100.00;101728.44;5286707;27;20558;-77
2024/02/13 10:49:51;;;;;;;8.18;2.00;;;;;;;11.12;100.00;101724.84;5289589;27;20023;-76
2024/02/13 10:52:22;;;;;;;7.63;2.00;;;;;;;10.93;100.00;101718.72;5281081;27;20023;-78
2024/02/13 10:54:54;;;;;;;6.38;2.00;;;;;;;10.88;100.00;101729.91;5283989;27;20008;-75
2024/02/13 10:57:24;;;;;;;4.30;1.70;;;;;;;10.39;100.00;101723.81;5283125;27;20039;-75
2024/02/13 10:59:57;;;;;;;8.52;2.50;;;;;;;10.57;100.00;101729.28;5288376;27;20019;-76
2024/02/13 11:02:30;;;;;;;7.35;2.00;;;;;;;10.56;100.00;101731.13;5286693;27;20024;-76
2024/02/13 11:05:06;;;;;;;9.80;1.92;;;;;;;10.82;100.00;101733.19;5285389;28;20031;-78
2024/02/13 11:07:37;;;;;;;2.22;1.45;;;;;;;10.89;100.00;101747.69;5286490;27;20069;-76
2024/02/13 11:10:08;;;;;;;7.85;1.58;;;;;;;10.85;100.00;101740.94;5285459;27;20024;-75
2024/02/13 11:12:39;;;;;;;2.60;1.33;;;;;;;11.04;100.00;101746.22;5287819;27;20014;-75
2024/02/13 11:15:20;;;;;;;5.47;1.77;;;;;;;11.35;100.00;101740.59;5285538;27;20011;-76
2024/02/13 11:17:54;;;;;;;6.07;1.65;;;;;;;11.33;100.00;101743.41;5289198;27;20020;-76
2024/02/13 11:20:28;;;;;;;7.30;1.73;;;;;;;11.71;100.00;101738.81;5282064;27;20015;-76
2024/02/13 11:23:00;;;;;;;7.15;1.80;;;;;;;11.79;100.00;101733.50;5284700;27;20473;-76
2024/02/13 11:25:38;;;;;;;10.00;1.92;;;;;;;11.92;100.00;101734.00;5287811;27;20040;-76
2024/02/13 11:28:11;;;;;;;14.32;8.40;;;;;;;12.16;100.00;101741.47;5283091;27;20094;-75
2024/02/13 11:30:41;;;;;;;6.45;1.80;;;;;;;12.02;100.00;101736.63;5287721;27;20072;-75
2024/02/13 11:33:18;;;;;;;5.97;2.08;;;;;;;11.95;100.00;101735.56;5282235;28;20443;-75
2024/02/13 11:35:56;;;;;;;6.95;1.70;;;;;;;11.89;100.00;101736.16;5285696;27;20487;-76
2024/02/13 11:38:28;;;;;;;8.27;1.90;;;;;;;11.60;100.00;101722.91;5287166;27;20480;-76